sensor_id;sensor_type;location;lat;lon;timestamp;pressure;altitude;pressure_sealevel;temperature;humidity
35918;BME280;22011;59.912;30.300;2023-12-29T00:00:31;100070.97;;;0.16;73.77
35918;BME280;22011;59.912;30.300;2023-12-29T00:03:00;100068.97;;;0.20;73.76
35918;BME280;22011;59.912;30.300;2023-12-29T00:05:27;100069.19;;;0.17;73.23
35918;BME280;22011;59.912;30.300;2023-12-29T00:07:55;100069.31;;;0.15;73.48
35918;BME280;22011;59.912;30.300;2023-12-29T00:10:23;100069.31;;;0.15;73.86
35918;BME280;22011;59.912;30.300;2023-12-29T00:12:50;100059.66;;;0.16;73.21
35918;BME280;22011;59.912;30.300;2023-12-29T00:15:18;100061.44;;;0.15;72.68
35918;BME280;22011;59.912;30.300;2023-12-29T00:17:46;100062.16;;;0.17;73.08
35918;BME280;22011;59.912;30.300;2023-12-29T00:20:15;100061.94;;;0.20;72.91
35918;BME280;22011;59.912;30.300;2023-12-29T00:22:42;100052.53;;;0.18;72.97
35918;BME280;22011;59.912;30.300;2023-12-29T00:25:10;100054.31;;;0.17;72.70
35918;BME280;22011;59.912;30.300;2023-12-29T00:27:38;100045.50;;;0.18;72.77
35918;BME280;22011;59.912;30.300;2023-12-29T00:30:06;100045.75;;;0.26;73.35
35918;BME280;22011;59.912;30.300;2023-12-29T00:32:35;100042.78;;;0.31;72.65
35918;BME280;22011;59.912;30.300;2023-12-29T00:35:03;100034.78;;;0.32;72.63
35918;BME280;22011;59.912;30.300;2023-12-29T00:37:32;100027.06;;;0.31;72.44
35918;BME280;22011;59.912;30.300;2023-12-29T00:40:00;100026.44;;;0.27;72.94
35918;BME280;22011;59.912;30.300;2023-12-29T00:42:27;100028.25;;;0.27;73.33
35918;BME280;22011;59.912;30.300;2023-12-29T00:44:55;100012.16;;;0.31;73.37
35918;BME280;22011;59.912;30.300;2023-12-29T00:47:23;100017.06;;;0.36;72.89
35918;BME280;22011;59.912;30.300;2023-12-29T00:49:51;100009.78;;;0.40;72.20
35918;BME280;22011;59.912;30.300;2023-12-29T00:52:24;99999.53;;;0.37;72.38
35918;BME280;22011;59.912;30.300;2023-12-29T00:54:53;100004.44;;;0.41;72.52
35918;BME280;22011;59.912;30.300;2023-12-29T00:57:20;99998.47;;;0.39;72.05
35918;BME280;22011;59.912;30.300;2023-12-29T00:59:48;99999.06;;;0.43;72.05
35918;BME280;22011;59.912;30.300;2023-12-29T01:02:16;99990.50;;;0.41;71.89
35918;BME280;22011;59.912;30.300;2023-12-29T01:04:43;99984.31;;;0.42;71.83
35918;BME280;22011;59.912;30.300;2023-12-29T01:07:11;99989.53;;;0.42;71.90
35918;BME280;22011;59.912;30.300;2023-12-29T01:09:38;99985.84;;;0.44;72.26
35918;BME280;22011;59.912;30.300;2023-12-29T01:12:08;99983.81;;;0.48;72.20
35918;BME280;22011;59.912;30.300;2023-12-29T01:14:35;99986.91;;;0.42;72.38
35918;BME280;22011;59.912;30.300;2023-12-29T01:17:03;99977.50;;;0.39;72.22
35918;BME280;22011;59.912;30.300;2023-12-29T01:19:31;99976.31;;;0.43;72.16
35918;BME280;22011;59.912;30.300;2023-12-29T01:21:58;99978.09;;;0.43;72.24
35918;BME280;22011;59.912;30.300;2023-12-29T01:24:26;99974.88;;;0.39;72.28
35918;BME280;22011;59.912;30.300;2023-12-29T01:26:54;99968.09;;;0.37;72.40
35918;BME280;22011;59.912;30.300;2023-12-29T01:29:23;99961.78;;;0.39;72.36
35918;BME280;22011;59.912;30.300;2023-12-29T01:31:51;99962.75;;;0.38;72.15
35918;BME280;22011;59.912;30.300;2023-12-29T01:34:18;99961.19;;;0.36;72.21
35918;BME280;22011;59.912;30.300;2023-12-29T01:36:46;99942.25;;;0.32;72.14
35918;BME280;22011;59.912;30.300;2023-12-29T01:39:14;99937.13;;;0.30;72.20
35918;BME280;22011;59.912;30.300;2023-12-29T01:41:41;99936.31;;;0.30;72.22
35918;BME280;22011;59.912;30.300;2023-12-29T01:44:18;99935.34;;;0.42;73.05
35918;BME280;22011;59.912;30.300;2023-12-29T01:46:49;99941.66;;;0.40;72.76
35918;BME280;22011;59.912;30.300;2023-12-29T01:49:18;99931.41;;;0.37;72.56
35918;BME280;22011;59.912;30.300;2023-12-29T01:51:49;99935.94;;;0.46;72.20
35918;BME280;22011;59.912;30.300;2023-12-29T01:54:19;99933.69;;;0.41;72.03
35918;BME280;22011;59.912;30.300;2023-12-29T01:56:48;99936.53;;;0.38;71.87
35918;BME280;22011;59.912;30.300;2023-12-29T01:59:16;99930.09;;;0.31;71.75
35918;BME280;22011;59.912;30.300;2023-12-29T02:01:45;99929.75;;;0.24;71.86
35918;BME280;22011;59.912;30.300;2023-12-29T02:04:14;99927.00;;;0.26;72.08
35918;BME280;22011;59.912;30.300;2023-12-29T02:06:43;99920.81;;;0.49;72.86
35918;BME280;22011;59.912;30.300;2023-12-29T02:09:11;99916.88;;;0.32;72.37
35918;BME280;22011;59.912;30.300;2023-12-29T02:11:39;99924.75;;;0.32;72.60
35918;BME280;22011;59.912;30.300;2023-12-29T02:14:07;99924.50;;;0.36;72.50
35918;BME280;22011;59.912;30.300;2023-12-29T02:16:40;99922.59;;;0.38;72.51
35918;BME280;22011;59.912;30.300;2023-12-29T02:19:25;99926.66;;;0.42;73.08
35918;BME280;22011;59.912;30.300;2023-12-29T02:21:55;99925.59;;;0.33;72.91
35918;BME280;22011;59.912;30.300;2023-12-29T02:24:23;99917.84;;;0.31;72.85
35918;BME280;22011;59.912;30.300;2023-12-29T02:27:03;99922.00;;;0.45;72.61
35918;BME280;22011;59.912;30.300;2023-12-29T02:29:38;99918.44;;;0.35;72.69
35918;BME280;22011;59.912;30.300;2023-12-29T02:32:11;99913.56;;;0.30;72.79
35918;BME280;22011;59.912;30.300;2023-12-29T02:34:41;99912.25;;;0.25;72.49
35918;BME280;22011;59.912;30.300;2023-12-29T02:37:12;99911.78;;;0.31;72.81
35918;BME280;22011;59.912;30.300;2023-12-29T02:39:40;99909.88;;;0.33;72.74
35918;BME280;22011;59.912;30.300;2023-12-29T02:42:09;99913.78;;;0.39;72.47
35918;BME280;22011;59.912;30.300;2023-12-29T02:44:37;99907.59;;;0.40;72.74
35918;BME280;22011;59.912;30.300;2023-12-29T02:47:05;99906.50;;;0.42;72.57
35918;BME280;22011;59.912;30.300;2023-12-29T02:49:33;99900.31;;;0.43;72.20
35918;BME280;22011;59.912;30.300;2023-12-29T02:52:00;99902.09;;;0.43;72.16
35918;BME280;22011;59.912;30.300;2023-12-29T02:54:28;99906.41;;;0.44;72.30
35918;BME280;22011;59.912;30.300;2023-12-29T02:56:55;99906.41;;;0.44;71.79
35918;BME280;22011;59.912;30.300;2023-12-29T02:59:24;99899.84;;;0.49;71.91
35918;BME280;22011;59.912;30.300;2023-12-29T03:01:52;99909.59;;;0.47;71.73
35918;BME280;22011;59.912;30.300;2023-12-29T03:04:20;99913.31;;;0.45;71.46
35918;BME280;22011;59.912;30.300;2023-12-29T03:06:47;99908.91;;;0.45;71.54
35918;BME280;22011;59.912;30.300;2023-12-29T03:09:15;99905.19;;;0.48;71.72
35918;BME280;22011;59.912;30.300;2023-12-29T03:11:43;99896.41;;;0.38;71.74
35918;BME280;22011;59.912;30.300;2023-12-29T03:14:10;99902.94;;;0.32;71.73
35918;BME280;22011;59.912;30.300;2023-12-29T03:16:39;99902.84;;;0.33;72.47
35918;BME280;22011;59.912;30.300;2023-12-29T03:19:07;99889.13;;;0.30;72.65
35918;BME280;22011;59.912;30.300;2023-12-29T03:21:35;99900.22;;;0.33;72.66
35918;BME280;22011;59.912;30.300;2023-12-29T03:24:02;99895.69;;;0.36;72.62
35918;BME280;22011;59.912;30.300;2023-12-29T03:26:30;99895.69;;;0.36;72.09
35918;BME280;22011;59.912;30.300;2023-12-29T03:28:57;99892.34;;;0.33;72.30
35918;BME280;22011;59.912;30.300;2023-12-29T03:31:25;99890.81;;;0.31;72.39
35918;BME280;22011;59.912;30.300;2023-12-29T03:33:54;99901.16;;;0.32;72.59
35918;BME280;22011;59.912;30.300;2023-12-29T03:36:22;99889.03;;;0.31;72.47
35918;BME280;22011;59.912;30.300;2023-12-29T03:38:49;99887.47;;;0.29;72.54
35918;BME280;22011;59.912;30.300;2023-12-29T03:41:17;99879.38;;;0.32;72.67
35918;BME280;22011;59.912;30.300;2023-12-29T03:43:45;99879.25;;;0.33;72.41
35918;BME280;22011;59.912;30.300;2023-12-29T03:46:16;99875.19;;;0.41;72.35
35918;BME280;22011;59.912;30.300;2023-12-29T03:48:44;99880.31;;;0.31;72.04
35918;BME280;22011;59.912;30.300;2023-12-29T03:51:14;99883.78;;;0.31;72.09
35918;BME280;22011;59.912;30.300;2023-12-29T03:53:41;99884.72;;;0.30;72.37
35918;BME280;22011;59.912;30.300;2023-12-29T03:56:14;99891.16;;;0.38;72.72
35918;BME280;22011;59.912;30.300;2023-12-29T03:58:42;99891.41;;;0.35;72.10
35918;BME280;22011;59.912;30.300;2023-12-29T04:01:10;99887.59;;;0.39;72.14
35918;BME280;22011;59.912;30.300;2023-12-29T04:03:39;99887.34;;;0.42;71.76
35918;BME280;22011;59.912;30.300;2023-12-29T04:06:07;99886.75;;;0.38;71.94
35918;BME280;22011;59.912;30.300;2023-12-29T04:08:37;99882.09;;;0.42;72.02
35918;BME280;22011;59.912;30.300;2023-12-29T04:11:05;99876.25;;;0.38;71.63
35918;BME280;22011;59.912;30.300;2023-12-29T04:13:33;99870.91;;;0.40;72.15
35918;BME280;22011;59.912;30.300;2023-12-29T04:16:01;99860.31;;;0.41;71.75
35918;BME280;22011;59.912;30.300;2023-12-29T04:18:28;99852.19;;;0.44;71.59
35918;BME280;22011;59.912;30.300;2023-12-29T04:20:56;99850.28;;;0.46;71.68
35918;BME280;22011;59.912;30.300;2023-12-29T04:23:24;99850.41;;;0.45;71.59
35918;BME280;22011;59.912;30.300;2023-12-29T04:25:53;99843.97;;;0.49;71.71
35918;BME280;22011;59.912;30.300;2023-12-29T04:28:20;99842.53;;;0.45;71.16
35918;BME280;22011;59.912;30.300;2023-12-29T04:30:48;99845.81;;;0.26;71.32
35918;BME280;22011;59.912;30.300;2023-12-29T04:33:15;99836.16;;;0.26;71.59
35918;BME280;22011;59.912;30.300;2023-12-29T04:35:43;99839.72;;;0.25;72.13
35918;BME280;22011;59.912;30.300;2023-12-29T04:38:11;99828.06;;;0.29;71.62
35918;BME280;22011;59.912;30.300;2023-12-29T04:40:38;99822.94;;;0.28;71.32
35918;BME280;22011;59.912;30.300;2023-12-29T04:43:07;99828.88;;;0.30;71.79
35918;BME280;22011;59.912;30.300;2023-12-29T04:45:35;99833.41;;;0.28;71.87
35918;BME280;22011;59.912;30.300;2023-12-29T04:48:03;99838.06;;;0.24;71.69
35918;BME280;22011;59.912;30.300;2023-12-29T04:50:31;99834.50;;;0.25;72.08
35918;BME280;22011;59.912;30.300;2023-12-29T04:52:58;99828.41;;;0.25;72.24
35918;BME280;22011;59.912;30.300;2023-12-29T04:55:26;99828.28;;;0.26;71.90
35918;BME280;22011;59.912;30.300;2023-12-29T04:57:53;99828.06;;;0.29;71.55
35918;BME280;22011;59.912;30.300;2023-12-29T05:00:22;99824.34;;;0.32;71.51
35918;BME280;22011;59.912;30.300;2023-12-29T05:02:50;99819.00;;;0.33;71.90
35918;BME280;22011;59.912;30.300;2023-12-29T05:05:17;99811.25;;;0.32;71.45
35918;BME280;22011;59.912;30.300;2023-12-29T05:07:45;99813.03;;;0.31;71.69
35918;BME280;22011;59.912;30.300;2023-12-29T05:10:13;99817.19;;;0.34;72.16
35918;BME280;22011;59.912;30.300;2023-12-29T05:12:41;99825.66;;;0.38;71.84
35918;BME280;22011;59.912;30.300;2023-12-29T05:15:09;99822.91;;;0.39;71.41
35918;BME280;22011;59.912;30.300;2023-12-29T05:17:38;99826.09;;;0.43;71.60
35918;BME280;22011;59.912;30.300;2023-12-29T05:20:07;99821.69;;;0.43;71.97
35918;BME280;22011;59.912;30.300;2023-12-29T05:22:35;99831.34;;;0.43;71.64
35918;BME280;22011;59.912;30.300;2023-12-29T05:25:03;99827.66;;;0.45;71.63
35918;BME280;22011;59.912;30.300;2023-12-29T05:27:31;99818.13;;;0.44;71.49
35918;BME280;22011;59.912;30.300;2023-12-29T05:29:59;99815.38;;;0.46;71.49
35918;BME280;22011;59.912;30.300;2023-12-29T05:32:26;99817.75;;;0.49;71.35
35918;BME280;22011;59.912;30.300;2023-12-29T05:34:55;99812.97;;;0.54;71.42
35918;BME280;22011;59.912;30.300;2023-12-29T05:37:23;99809.88;;;0.49;71.25
35918;BME280;22011;59.912;30.300;2023-12-29T05:39:50;99805.59;;;0.48;71.11
35918;BME280;22011;59.912;30.300;2023-12-29T05:42:18;99795.25;;;0.46;71.40
35918;BME280;22011;59.912;30.300;2023-12-29T05:44:46;99785.97;;;0.42;71.29
35918;BME280;22011;59.912;30.300;2023-12-29T05:47:14;99782.41;;;0.43;71.37
35918;BME280;22011;59.912;30.300;2023-12-29T05:49:41;99783.69;;;0.49;70.97
35918;BME280;22011;59.912;30.300;2023-12-29T05:52:11;99795.47;;;0.54;70.96
35918;BME280;22011;59.912;30.300;2023-12-29T05:54:38;99809.41;;;0.55;71.08
35918;BME280;22011;59.912;30.300;2023-12-29T05:57:06;99825.50;;;0.50;71.27
35918;BME280;22011;59.912;30.300;2023-12-29T05:59:34;99830.28;;;0.45;71.30
35918;BME280;22011;59.912;30.300;2023-12-29T06:02:02;99827.66;;;0.45;70.85
35918;BME280;22011;59.912;30.300;2023-12-29T06:04:29;99831.47;;;0.41;70.98
35918;BME280;22011;59.912;30.300;2023-12-29T06:06:57;99832.19;;;0.43;71.11
35918;BME280;22011;59.912;30.300;2023-12-29T06:09:26;99831.47;;;0.41;71.13
35918;BME280;22011;59.912;30.300;2023-12-29T06:11:54;99837.09;;;0.37;70.91
35918;BME280;22011;59.912;30.300;2023-12-29T06:14:22;99845.41;;;0.42;71.24
35918;BME280;22011;59.912;30.300;2023-12-29T06:16:50;99856.34;;;0.47;71.34
35918;BME280;22011;59.912;30.300;2023-12-29T06:19:17;99861.72;;;0.45;71.09
35918;BME280;22011;59.912;30.300;2023-12-29T06:21:45;99864.47;;;0.44;70.78
35918;BME280;22011;59.912;30.300;2023-12-29T06:24:13;99858.38;;;0.43;70.93
35918;BME280;22011;59.912;30.300;2023-12-29T06:26:43;99861.13;;;0.42;70.93
35918;BME280;22011;59.912;30.300;2023-12-29T06:29:10;99853.50;;;0.39;71.17
35918;BME280;22011;59.912;30.300;2023-12-29T06:31:40;99859.22;;;0.44;71.80
35918;BME280;22011;59.912;30.300;2023-12-29T06:34:08;99862.31;;;0.49;71.79
35918;BME280;22011;59.912;30.300;2023-12-29T06:36:36;99856.13;;;0.50;71.50
35918;BME280;22011;59.912;30.300;2023-12-29T06:39:03;99858.72;;;0.50;71.50
35918;BME280;22011;59.912;30.300;2023-12-29T06:41:31;99861.09;;;0.53;71.41
35918;BME280;22011;59.912;30.300;2023-12-29T06:44:01;99856.56;;;0.55;71.64
35918;BME280;22011;59.912;30.300;2023-12-29T06:46:28;99867.06;;;0.55;71.24
35918;BME280;22011;59.912;30.300;2023-12-29T06:48:56;99882.78;;;0.55;71.36
35918;BME280;22011;59.912;30.300;2023-12-29T06:51:24;99875.63;;;0.57;71.42
35918;BME280;22011;59.912;30.300;2023-12-29T06:53:52;99872.88;;;0.58;70.92
35918;BME280;22011;59.912;30.300;2023-12-29T06:56:19;99864.66;;;0.63;70.83
35918;BME280;22011;59.912;30.300;2023-12-29T06:58:47;99859.41;;;0.63;70.48
35918;BME280;22011;59.912;30.300;2023-12-29T07:01:16;99861.66;;;0.68;70.63
35918;BME280;22011;59.912;30.300;2023-12-29T07:03:44;99860.97;;;0.65;70.49
35918;BME280;22011;59.912;30.300;2023-12-29T07:06:12;99864.28;;;0.68;70.54
35918;BME280;22011;59.912;30.300;2023-12-29T07:08:40;99858.47;;;0.64;71.22
35918;BME280;22011;59.912;30.300;2023-12-29T07:11:09;99857.50;;;0.65;71.20
35918;BME280;22011;59.912;30.300;2023-12-29T07:13:38;99869.91;;;0.63;71.01
35918;BME280;22011;59.912;30.300;2023-12-29T07:16:06;99870.47;;;0.67;70.74
35918;BME280;22011;59.912;30.300;2023-12-29T07:18:35;99880.00;;;0.68;70.85
35918;BME280;22011;59.912;30.300;2023-12-29T07:21:03;99875.38;;;0.60;70.94
35918;BME280;22011;59.912;30.300;2023-12-29T07:23:31;99877.88;;;0.61;70.80
35918;BME280;22011;59.912;30.300;2023-12-29T07:25:59;99885.75;;;0.61;70.96
35918;BME280;22011;59.912;30.300;2023-12-29T07:28:27;99876.69;;;0.65;70.84
35918;BME280;22011;59.912;30.300;2023-12-29T07:30:54;99872.16;;;0.68;70.42
35918;BME280;22011;59.912;30.300;2023-12-29T07:33:22;99870.34;;;0.68;70.07
35918;BME280;22011;59.912;30.300;2023-12-29T07:35:52;99877.97;;;0.71;70.23
35918;BME280;22011;59.912;30.300;2023-12-29T07:38:20;99872.97;;;0.68;70.14
35918;BME280;22011;59.912;30.300;2023-12-29T07:40:47;99870.84;;;0.62;70.64
35918;BME280;22011;59.912;30.300;2023-12-29T07:43:15;99869.19;;;0.61;70.47
35918;BME280;22011;59.912;30.300;2023-12-29T07:45:43;99869.91;;;0.63;70.47
35918;BME280;22011;59.912;30.300;2023-12-29T07:48:11;99866.06;;;0.67;70.39
35918;BME280;22011;59.912;30.300;2023-12-29T07:50:39;99867.50;;;0.71;70.69
35918;BME280;22011;59.912;30.300;2023-12-29T07:53:08;99862.72;;;0.76;70.59
35918;BME280;22011;59.912;30.300;2023-12-29T07:55:37;99853.63;;;0.80;70.50
35918;BME280;22011;59.912;30.300;2023-12-29T07:58:06;99857.91;;;0.81;69.85
35918;BME280;22011;59.912;30.300;2023-12-29T08:00:36;99864.81;;;0.82;70.22
35918;BME280;22011;59.912;30.300;2023-12-29T08:03:04;99871.03;;;0.81;70.27
35918;BME280;22011;59.912;30.300;2023-12-29T08:05:34;99868.03;;;0.86;69.99
35918;BME280;22011;59.912;30.300;2023-12-29T08:08:01;99866.50;;;0.83;70.10
35918;BME280;22011;59.912;30.300;2023-12-29T08:10:30;99873.16;;;0.87;70.20
35918;BME280;22011;59.912;30.300;2023-12-29T08:12:58;99875.66;;;0.89;70.10
35918;BME280;22011;59.912;30.300;2023-12-29T08:15:26;99876.72;;;0.86;69.74
35918;BME280;22011;59.912;30.300;2023-12-29T08:17:54;99871.25;;;0.89;69.87
35918;BME280;22011;59.912;30.300;2023-12-29T08:20:21;99877.44;;;0.88;70.01
35918;BME280;22011;59.912;30.300;2023-12-29T08:22:50;99878.41;;;0.87;69.83
35918;BME280;22011;59.912;30.300;2023-12-29T08:25:18;99883.06;;;0.84;70.22
35918;BME280;22011;59.912;30.300;2023-12-29T08:27:47;99881.72;;;0.89;69.86
35918;BME280;22011;59.912;30.300;2023-12-29T08:30:14;99875.06;;;0.85;69.89
35918;BME280;22011;59.912;30.300;2023-12-29T08:32:42;99873.41;;;0.84;70.00
35918;BME280;22011;59.912;30.300;2023-12-29T08:35:10;99865.16;;;0.89;70.54
35918;BME280;22011;59.912;30.300;2023-12-29T08:37:37;99865.50;;;0.95;69.74
35918;BME280;22011;59.912;30.300;2023-12-29T08:40:06;99865.94;;;1.01;69.26
35918;BME280;22011;59.912;30.300;2023-12-29T08:42:34;99863.31;;;1.01;69.07
35918;BME280;22011;59.912;30.300;2023-12-29T08:45:05;99857.53;;;1.07;68.98
35918;BME280;22011;59.912;30.300;2023-12-29T08:47:33;99862.25;;;1.03;69.21
35918;BME280;22011;59.912;30.300;2023-12-29T08:50:00;99858.09;;;1.01;69.26
35918;BME280;22011;59.912;30.300;2023-12-29T08:52:28;99857.13;;;1.02;69.14
35918;BME280;22011;59.912;30.300;2023-12-29T08:54:56;99856.84;;;1.05;69.35
35918;BME280;22011;59.912;30.300;2023-12-29T08:57:23;99853.97;;;1.08;68.87
35918;BME280;22011;59.912;30.300;2023-12-29T08:59:51;99854.50;;;1.02;69.17
35918;BME280;22011;59.912;30.300;2023-12-29T09:02:20;99858.63;;;1.04;69.08
35918;BME280;22011;59.912;30.300;2023-12-29T09:04:48;99863.31;;;1.01;68.99
35918;BME280;22011;59.912;30.300;2023-12-29T09:07:15;99854.44;;;0.92;69.30
35918;BME280;22011;59.912;30.300;2023-12-29T09:09:43;99855.25;;;0.92;69.50
35918;BME280;22011;59.912;30.300;2023-12-29T09:12:11;99850.59;;;0.96;69.35
35918;BME280;22011;59.912;30.300;2023-12-29T09:14:38;99849.88;;;0.94;69.30
35918;BME280;22011;59.912;30.300;2023-12-29T09:17:06;99842.00;;;0.94;69.72
35918;BME280;22011;59.912;30.300;2023-12-29T09:19:35;99837.34;;;0.97;69.64
35918;BME280;22011;59.912;30.300;2023-12-29T09:22:03;99832.59;;;0.91;69.46
35918;BME280;22011;59.912;30.300;2023-12-29T09:24:31;99834.66;;;0.88;69.71
35918;BME280;22011;59.912;30.300;2023-12-29T09:26:58;99837.84;;;0.91;70.04
35918;BME280;22011;59.912;30.300;2023-12-29T09:29:26;99839.00;;;0.98;69.31
35918;BME280;22011;59.912;30.300;2023-12-29T09:31:54;99837.34;;;0.97;69.21
35918;BME280;22011;59.912;30.300;2023-12-29T09:34:21;99833.06;;;0.96;69.47
35918;BME280;22011;59.912;30.300;2023-12-29T09:36:50;99826.03;;;0.97;69.71
35918;BME280;22011;59.912;30.300;2023-12-29T09:39:18;99838.44;;;0.95;69.29
35918;BME280;22011;59.912;30.300;2023-12-29T09:41:46;99828.13;;;1.03;69.21
35918;BME280;22011;59.912;30.300;2023-12-29T09:44:14;99823.56;;;1.05;69.36
35918;BME280;22011;59.912;30.300;2023-12-29T09:46:42;99827.44;;;1.01;68.64
35918;BME280;22011;59.912;30.300;2023-12-29T09:49:10;99832.03;;;0.88;69.45
35918;BME280;22011;59.912;30.300;2023-12-29T09:51:40;99824.38;;;0.96;69.75
35918;BME280;22011;59.912;30.300;2023-12-29T09:54:09;99819.81;;;0.98;69.71
35918;BME280;22011;59.912;30.300;2023-12-29T09:56:38;99821.63;;;0.97;70.27
35918;BME280;22011;59.912;30.300;2023-12-29T09:59:08;99811.13;;;0.97;70.00
35918;BME280;22011;59.912;30.300;2023-12-29T10:01:37;99811.38;;;0.94;69.82
35918;BME280;22011;59.912;30.300;2023-12-29T10:04:06;99810.41;;;0.95;69.68
35918;BME280;22011;59.912;30.300;2023-12-29T10:06:36;99810.88;;;1.01;70.05
35918;BME280;22011;59.912;30.300;2023-12-29T10:09:09;99812.94;;;1.07;69.54
35918;BME280;22011;59.912;30.300;2023-12-29T10:11:40;99800.66;;;1.07;69.74
35918;BME280;22011;59.912;30.300;2023-12-29T10:14:20;99796.44;;;1.16;70.03
35918;BME280;22011;59.912;30.300;2023-12-29T10:16:50;99793.66;;;1.38;70.22
35918;BME280;22011;59.912;30.300;2023-12-29T10:19:27;99791.78;;;1.19;69.71
35918;BME280;22011;59.912;30.300;2023-12-29T10:22:01;99784.53;;;1.12;69.84
35918;BME280;22011;59.912;30.300;2023-12-29T10:24:32;99789.53;;;1.15;69.35
35918;BME280;22011;59.912;30.300;2023-12-29T10:27:00;99787.16;;;1.12;69.51
35918;BME280;22011;59.912;30.300;2023-12-29T10:29:28;99777.88;;;1.08;69.53
35918;BME280;22011;59.912;30.300;2023-12-29T10:31:56;99783.13;;;1.08;68.95
35918;BME280;22011;59.912;30.300;2023-12-29T10:34:24;99785.50;;;1.11;69.44
35918;BME280;22011;59.912;30.300;2023-12-29T10:36:55;99784.53;;;1.12;68.93
35918;BME280;22011;59.912;30.300;2023-12-29T10:39:23;99782.19;;;1.09;68.82
35918;BME280;22011;59.912;30.300;2023-12-29T10:42:03;99785.94;;;1.16;69.38
35918;BME280;22011;59.912;30.300;2023-12-29T10:44:32;99781.75;;;1.04;69.16
35918;BME280;22011;59.912;30.300;2023-12-29T10:47:07;99791.19;;;1.16;69.41
35918;BME280;22011;59.912;30.300;2023-12-29T10:49:35;99786.59;;;1.08;69.22
35918;BME280;22011;59.912;30.300;2023-12-29T10:52:11;99791.63;;;1.21;69.26
35918;BME280;22011;59.912;30.300;2023-12-29T10:54:39;99797.91;;;1.09;68.75
35918;BME280;22011;59.912;30.300;2023-12-29T10:57:12;99793.38;;;1.11;69.37
35918;BME280;22011;59.912;30.300;2023-12-29T10:59:40;99784.09;;;1.07;69.57
35918;BME280;22011;59.912;30.300;2023-12-29T11:02:11;99774.75;;;1.14;70.40
35918;BME280;22011;59.912;30.300;2023-12-29T11:04:41;99773.22;;;1.11;69.49
35918;BME280;22011;59.912;30.300;2023-12-29T11:07:11;99767.44;;;1.17;69.45
35918;BME280;22011;59.912;30.300;2023-12-29T11:09:39;99760.25;;;1.40;69.67
35918;BME280;22011;59.912;30.300;2023-12-29T11:12:09;99770.59;;;1.11;69.13
35918;BME280;22011;59.912;30.300;2023-12-29T11:14:39;99769.44;;;1.04;69.22
35918;BME280;22011;59.912;30.300;2023-12-29T11:17:08;99772.06;;;1.04;69.07
35918;BME280;22011;59.912;30.300;2023-12-29T11:19:38;99766.03;;;1.04;69.47
35918;BME280;22011;59.912;30.300;2023-12-29T11:22:08;99769.59;;;1.03;69.37
35918;BME280;22011;59.912;30.300;2023-12-29T11:24:36;99759.63;;;0.96;69.34
35918;BME280;22011;59.912;30.300;2023-12-29T11:27:06;99764.03;;;0.96;69.48
35918;BME280;22011;59.912;30.300;2023-12-29T11:29:35;99764.97;;;1.16;69.58
35918;BME280;22011;59.912;30.300;2023-12-29T11:32:06;99749.56;;;1.02;70.02
35918;BME280;22011;59.912;30.300;2023-12-29T11:34:39;99762.56;;;1.03;69.70
35918;BME280;22011;59.912;30.300;2023-12-29T11:37:29;99766.03;;;1.13;70.49
35918;BME280;22011;59.912;30.300;2023-12-29T11:40:09;99756.19;;;1.06;70.55
35918;BME280;22011;59.912;30.300;2023-12-29T11:42:41;99755.53;;;1.04;70.26
35918;BME280;22011;59.912;30.300;2023-12-29T11:45:27;99745.25;;;1.21;70.06
35918;BME280;22011;59.912;30.300;2023-12-29T11:47:55;99738.66;;;1.06;69.55
35918;BME280;22011;59.912;30.300;2023-12-29T11:50:30;99731.25;;;1.11;69.34
35918;BME280;22011;59.912;30.300;2023-12-29T11:52:58;99738.13;;;1.03;69.15
35918;BME280;22011;59.912;30.300;2023-12-29T11:55:29;99741.59;;;1.03;69.41
35918;BME280;22011;59.912;30.300;2023-12-29T11:57:57;99741.00;;;1.00;69.31
35918;BME280;22011;59.912;30.300;2023-12-29T12:00:43;99727.53;;;1.14;69.90
35918;BME280;22011;59.912;30.300;2023-12-29T12:03:17;99726.69;;;1.04;69.34
35918;BME280;22011;59.912;30.300;2023-12-29T12:05:47;99716.00;;;0.95;69.60
35918;BME280;22011;59.912;30.300;2023-12-29T12:08:28;99717.16;;;1.12;70.22
35918;BME280;22011;59.912;30.300;2023-12-29T12:10:57;99706.22;;;0.97;69.42
35918;BME280;22011;59.912;30.300;2023-12-29T12:13:45;99708.25;;;0.94;69.69
35918;BME280;22011;59.912;30.300;2023-12-29T12:16:48;99709.69;;;1.08;70.11
35918;BME280;22011;59.912;30.300;2023-12-29T12:19:17;99705.06;;;0.90;69.44
35918;BME280;22011;59.912;30.300;2023-12-29T12:21:47;99696.25;;;0.91;70.00
35918;BME280;22011;59.912;30.300;2023-12-29T12:24:18;99686.56;;;0.92;69.61
35918;BME280;22011;59.912;30.300;2023-12-29T12:26:47;99681.66;;;0.78;69.54
35918;BME280;22011;59.912;30.300;2023-12-29T12:29:16;99687.28;;;0.73;70.09
35918;BME280;22011;59.912;30.300;2023-12-29T12:31:56;99691.50;;;0.85;70.62
35918;BME280;22011;59.912;30.300;2023-12-29T12:34:24;99685.56;;;0.83;70.21
35918;BME280;22011;59.912;30.300;2023-12-29T12:36:53;99694.25;;;0.84;69.63
35918;BME280;22011;59.912;30.300;2023-12-29T12:39:22;99693.28;;;0.85;69.83
35918;BME280;22011;59.912;30.300;2023-12-29T12:41:50;99702.13;;;0.84;70.37
35918;BME280;22011;59.912;30.300;2023-12-29T12:44:18;99702.97;;;0.84;70.27
35918;BME280;22011;59.912;30.300;2023-12-29T12:46:50;99700.66;;;0.91;70.13
35918;BME280;22011;59.912;30.300;2023-12-29T12:49:21;99694.69;;;0.89;70.54
35918;BME280;22011;59.912;30.300;2023-12-29T12:51:49;99702.56;;;0.89;70.50
35918;BME280;22011;59.912;30.300;2023-12-29T12:54:18;99697.19;;;0.90;70.25
35918;BME280;22011;59.912;30.300;2023-12-29T12:56:46;99689.16;;;0.82;70.17
35918;BME280;22011;59.912;30.300;2023-12-29T12:59:15;99681.97;;;0.84;70.54
35918;BME280;22011;59.912;30.300;2023-12-29T13:01:43;99677.19;;;0.89;70.12
35918;BME280;22011;59.912;30.300;2023-12-29T13:04:12;99667.25;;;0.93;69.99
35918;BME280;22011;59.912;30.300;2023-12-29T13:06:42;99661.44;;;0.89;69.65
35918;BME280;22011;59.912;30.300;2023-12-29T13:09:10;99661.41;;;0.80;69.74